createdAt,value
2019-03-26T00:01:21.577Z,8.32
2019-03-26T00:04:04.914Z,8.31
2019-03-26T00:06:24.638Z,8.34
2019-03-26T00:08:55.054Z,8.33
2019-03-26T00:11:25.494Z,8.34
2019-03-26T00:13:57.716Z,8.33
2019-03-26T00:16:28.046Z,8.34
2019-03-26T00:18:58.445Z,8.34
2019-03-26T00:21:28.967Z,8.33
2019-03-26T00:23:59.436Z,8.33
2019-03-26T00:26:29.914Z,8.32
2019-03-26T00:29:00.310Z,8.34
2019-03-26T00:31:31.717Z,8.33
2019-03-26T00:34:02.107Z,8.31
2019-03-26T00:36:32.825Z,8.31
2019-03-26T00:39:04.712Z,8.30
2019-03-26T00:41:35.187Z,8.25
2019-03-26T00:44:05.667Z,8.29
2019-03-26T00:46:36.145Z,8.27
2019-03-26T00:49:06.546Z,8.29
2019-03-26T00:51:37.029Z,8.29
2019-03-26T00:54:07.491Z,8.30
2019-03-26T00:56:38.389Z,8.29
2019-03-26T00:59:08.779Z,8.27
2019-03-26T01:01:39.542Z,8.28
2019-03-26T01:04:10.053Z,8.27
2019-03-26T01:06:40.516Z,8.25
2019-03-26T01:09:11.346Z,8.23
2019-03-26T01:11:42.210Z,8.21
2019-03-26T01:14:12.605Z,8.24
2019-03-26T01:16:43.093Z,8.24
2019-03-26T01:19:13.564Z,8.22
2019-03-26T01:21:44.041Z,8.16
2019-03-26T01:24:14.417Z,8.17
2019-03-26T01:26:44.887Z,8.17
2019-03-26T01:29:15.566Z,8.17
2019-03-26T01:31:46.137Z,8.17
2019-03-26T01:34:16.733Z,8.23
2019-03-26T01:36:47.526Z,8.22
2019-03-26T01:39:17.986Z,8.20
2019-03-26T01:41:48.520Z,8.16
2019-03-26T01:44:19.028Z,8.12
2019-03-26T01:46:49.467Z,8.07
2019-03-26T01:49:19.849Z,8.01
2019-03-26T01:51:50.194Z,8.02
2019-03-26T01:54:20.509Z,8.01
2019-03-26T01:56:51.011Z,8.00
2019-03-26T01:59:21.357Z,8.02
2019-03-26T02:01:51.859Z,7.99
2019-03-26T02:04:22.311Z,8.00
2019-03-26T02:06:52.982Z,8.00
2019-03-26T02:09:23.369Z,7.94
2019-03-26T02:11:56.289Z,7.93
2019-03-26T02:14:26.912Z,7.92
2019-03-26T02:16:58.780Z,7.88
2019-03-26T02:19:29.419Z,7.87
2019-03-26T02:21:59.824Z,7.85
2019-03-26T02:24:30.296Z,7.86
2019-03-26T02:27:01.546Z,7.87
2019-03-26T02:29:32.033Z,7.84
2019-03-26T02:32:02.528Z,7.88
2019-03-26T02:34:33.605Z,7.90
2019-03-26T02:37:04.069Z,7.91
2019-03-26T02:39:34.896Z,7.94
2019-03-26T02:42:05.380Z,7.96
2019-03-26T02:44:35.763Z,7.97
2019-03-26T02:47:06.562Z,7.96
2019-03-26T02:49:39.021Z,7.96
2019-03-26T02:52:09.444Z,7.91
2019-03-26T02:54:40.209Z,7.94
2019-03-26T02:57:10.950Z,7.95
2019-03-26T02:59:41.340Z,7.92
2019-03-26T03:02:12.116Z,7.94
2019-03-26T03:04:42.831Z,7.95
2019-03-26T03:07:13.686Z,7.94
2019-03-26T03:09:44.162Z,7.91
2019-03-26T03:12:14.940Z,7.91
2019-03-26T03:14:45.659Z,7.93
2019-03-26T03:17:16.242Z,7.98
2019-03-26T03:19:46.731Z,8.02
2019-03-26T03:22:17.543Z,8.03
2019-03-26T03:24:47.974Z,8.00
2019-03-26T03:27:18.473Z,8.00
2019-03-26T03:29:49.726Z,8.01
2019-03-26T03:32:20.252Z,8.00
2019-03-26T03:34:51.038Z,8.00
2019-03-26T03:37:21.805Z,8.00
2019-03-26T03:39:52.295Z,7.98
2019-03-26T03:42:23.122Z,7.98
2019-03-26T03:44:53.840Z,8.00
2019-03-26T03:47:28.167Z,8.02
2019-03-26T03:50:01.590Z,8.05
2019-03-26T03:52:38.445Z,8.06
2019-03-26T03:55:09.458Z,8.07
2019-03-26T03:57:41.051Z,8.05
2019-03-26T04:00:22.928Z,8.05
2019-03-26T04:02:53.439Z,7.99
2019-03-26T04:05:23.939Z,8.00
2019-03-26T04:07:55.636Z,7.99
2019-03-26T04:10:27.250Z,7.97
2019-03-26T04:12:57.782Z,7.96
2019-03-26T04:15:28.271Z,7.97
2019-03-26T04:17:58.757Z,7.94
2019-03-26T04:20:29.375Z,7.94
2019-03-26T04:22:59.904Z,7.92
2019-03-26T04:25:30.784Z,7.90
2019-03-26T04:28:01.286Z,7.90
2019-03-26T04:30:33.036Z,7.87
2019-03-26T04:33:03.683Z,7.85
2019-03-26T04:35:34.610Z,7.87
2019-03-26T04:38:05.228Z,7.87
2019-03-26T04:40:35.839Z,7.88
2019-03-26T04:43:06.511Z,7.89
2019-03-26T04:45:37.062Z,7.89
2019-03-26T04:48:07.690Z,7.87
2019-03-26T04:50:38.412Z,7.83
2019-03-26T04:53:08.897Z,7.83
2019-03-26T04:55:39.554Z,7.83
2019-03-26T04:58:10.376Z,7.83
2019-03-26T05:00:40.859Z,7.83
2019-03-26T05:03:12.028Z,7.86
2019-03-26T05:05:42.959Z,7.88
2019-03-26T05:08:13.402Z,7.89
2019-03-26T05:10:43.820Z,7.89
2019-03-26T05:13:14.279Z,7.89
2019-03-26T05:15:45.029Z,7.90
2019-03-26T05:18:15.795Z,7.89
2019-03-26T05:20:48.464Z,7.91
2019-03-26T05:23:18.937Z,7.93
2019-03-26T05:25:49.465Z,7.92
2019-03-26T05:28:19.893Z,7.92
2019-03-26T05:30:50.433Z,7.93
2019-03-26T05:33:21.685Z,7.90
2019-03-26T05:35:52.890Z,7.91
2019-03-26T05:38:23.962Z,7.95
2019-03-26T05:40:54.480Z,7.96
2019-03-26T05:43:25.313Z,7.99
2019-03-26T05:45:55.787Z,8.02
2019-03-26T05:48:26.301Z,8.05
2019-03-26T05:50:57.256Z,8.08
2019-03-26T05:53:27.952Z,8.09
2019-03-26T05:55:58.467Z,8.09
2019-03-26T05:58:28.954Z,8.08
2019-03-26T06:00:59.516Z,7.97
2019-03-26T06:03:30.028Z,7.94
2019-03-26T06:06:01.106Z,7.91
2019-03-26T06:08:31.622Z,7.89
2019-03-26T06:11:02.547Z,7.89
2019-03-26T06:13:32.921Z,7.84
2019-03-26T06:16:03.489Z,7.83
2019-03-26T06:18:34.362Z,7.80
2019-03-26T06:21:05.225Z,7.78
2019-03-26T06:23:37.152Z,7.80
2019-03-26T06:26:07.686Z,7.80
2019-03-26T06:28:38.179Z,7.80
2019-03-26T06:31:08.684Z,7.82
2019-03-26T06:33:39.482Z,7.82
2019-03-26T06:36:10.108Z,7.85
2019-03-26T06:38:40.524Z,7.86
2019-03-26T06:41:11.165Z,7.87
2019-03-26T06:43:41.665Z,7.91
2019-03-26T06:46:12.032Z,7.92
2019-03-26T06:48:42.996Z,7.94
2019-03-26T06:51:13.750Z,7.93
2019-03-26T06:53:44.164Z,7.87
2019-03-26T06:56:15.745Z,7.85
2019-03-26T06:58:46.141Z,7.83
2019-03-26T07:01:17.471Z,7.84
2019-03-26T07:03:48.000Z,7.81
2019-03-26T07:06:18.539Z,7.84
2019-03-26T07:08:49.057Z,7.83
2019-03-26T07:11:19.802Z,7.82
2019-03-26T07:13:50.316Z,7.84
2019-03-26T07:16:20.818Z,7.88
2019-03-26T07:18:51.241Z,7.88
2019-03-26T07:21:22.035Z,7.92
2019-03-26T07:23:52.445Z,7.91
2019-03-26T07:26:22.935Z,7.90
2019-03-26T07:28:56.576Z,7.95
2019-03-26T07:31:25.836Z,7.86
2019-03-26T07:33:56.307Z,7.87
2019-03-26T07:36:26.731Z,7.91
2019-03-26T07:38:58.453Z,7.95
2019-03-26T07:41:28.952Z,7.96
2019-03-26T07:43:59.425Z,8.01
2019-03-26T07:46:30.243Z,8.00
2019-03-26T07:49:01.213Z,7.98
2019-03-26T07:51:32.388Z,7.99
2019-03-26T07:54:02.878Z,8.02
2019-03-26T07:56:33.391Z,8.05
2019-03-26T07:59:03.970Z,8.08
2019-03-26T08:01:34.523Z,8.09
2019-03-26T08:04:05.281Z,8.13
2019-03-26T08:06:35.897Z,8.15
2019-03-26T08:09:07.318Z,8.18
2019-03-26T08:11:37.823Z,8.21
2019-03-26T08:14:08.653Z,8.26
2019-03-26T08:16:39.051Z,8.32
2019-03-26T08:19:09.633Z,8.41
2019-03-26T08:21:40.136Z,8.44
2019-03-26T08:24:10.622Z,8.48
2019-03-26T08:26:41.084Z,8.51
2019-03-26T08:29:11.581Z,8.55
2019-03-26T08:31:42.089Z,8.54
2019-03-26T08:34:12.768Z,8.53
2019-03-26T08:36:43.237Z,8.52
2019-03-26T08:39:13.732Z,8.60
2019-03-26T08:41:45.067Z,8.66
2019-03-26T08:44:15.933Z,8.73
2019-03-26T08:46:46.511Z,8.84
2019-03-26T08:49:16.947Z,8.91
2019-03-26T08:51:47.384Z,8.95
2019-03-26T08:54:17.866Z,9.05
2019-03-26T08:56:48.278Z,9.10
2019-03-26T08:59:18.745Z,9.07
2019-03-26T09:01:49.501Z,8.98
2019-03-26T09:04:20.092Z,8.89
2019-03-26T09:06:50.665Z,8.88
2019-03-26T09:09:21.161Z,8.88
2019-03-26T09:11:51.666Z,8.86
2019-03-26T09:14:22.168Z,8.86
2019-03-26T09:16:52.560Z,8.81
2019-03-26T09:19:23.394Z,8.82
2019-03-26T09:21:54.130Z,8.86
2019-03-26T09:24:24.524Z,8.84
2019-03-26T09:26:54.904Z,8.86
2019-03-26T09:29:25.332Z,8.87
2019-03-26T09:31:55.820Z,8.93
2019-03-26T09:34:26.287Z,9.03
2019-03-26T09:36:57.649Z,9.12
2019-03-26T09:39:28.129Z,9.15
2019-03-26T09:41:58.817Z,9.20
2019-03-26T09:44:29.123Z,9.17
2019-03-26T09:46:59.580Z,9.17
2019-03-26T09:49:29.968Z,9.18
2019-03-26T09:52:00.840Z,9.21
2019-03-26T09:54:32.681Z,9.21
2019-03-26T09:57:03.204Z,9.25
2019-03-26T09:59:33.912Z,9.23
2019-03-26T10:02:04.387Z,9.21
2019-03-26T10:04:34.851Z,9.23
2019-03-26T10:07:05.357Z,9.25
2019-03-26T10:09:35.906Z,9.29
2019-03-26T10:12:06.518Z,9.30
2019-03-26T10:14:37.161Z,9.31
2019-03-26T10:17:07.621Z,9.33
2019-03-26T10:19:38.201Z,9.36
2019-03-26T10:22:08.654Z,9.40
2019-03-26T10:24:39.160Z,9.38
2019-03-26T10:27:09.547Z,9.42
2019-03-26T10:29:40.531Z,9.42
2019-03-26T10:32:10.990Z,9.47
2019-03-26T10:34:41.397Z,9.46
2019-03-26T10:37:11.856Z,9.44
2019-03-26T10:39:42.794Z,9.35
2019-03-26T10:42:13.816Z,9.30
2019-03-26T10:44:44.598Z,9.31
2019-03-26T10:47:15.136Z,9.26
2019-03-26T10:49:45.610Z,9.26
2019-03-26T10:52:16.054Z,9.29
2019-03-26T10:54:47.417Z,9.34
2019-03-26T10:57:17.896Z,9.43
2019-03-26T10:59:48.970Z,9.53
2019-03-26T11:02:19.541Z,9.56
2019-03-26T11:04:51.018Z,9.58
2019-03-26T11:07:21.502Z,9.58
2019-03-26T11:09:52.005Z,9.49
2019-03-26T11:12:22.614Z,9.44
2019-03-26T11:14:53.094Z,9.46
2019-03-26T11:17:23.563Z,9.50
2019-03-26T11:19:54.308Z,9.45
2019-03-26T11:22:24.720Z,9.40
2019-03-26T11:24:55.569Z,9.37
2019-03-26T11:27:26.816Z,9.40
2019-03-26T11:29:58.350Z,9.40
2019-03-26T11:32:28.926Z,9.33
2019-03-26T11:34:59.967Z,9.34
2019-03-26T11:37:30.572Z,9.37
2019-03-26T11:40:00.960Z,9.38
2019-03-26T11:42:31.495Z,9.38
2019-03-26T11:45:01.974Z,9.40
2019-03-26T11:47:33.389Z,9.39
2019-03-26T11:50:04.906Z,9.35
2019-03-26T11:52:35.835Z,9.32
2019-03-26T11:55:06.532Z,9.34
2019-03-26T11:57:37.374Z,9.33
2019-03-26T12:00:08.697Z,9.33
2019-03-26T12:02:39.436Z,9.31
2019-03-26T12:05:10.418Z,9.34
2019-03-26T12:07:42.942Z,9.35
2019-03-26T12:10:13.774Z,9.42
2019-03-26T12:12:44.747Z,9.50
2019-03-26T12:15:15.318Z,9.60
2019-03-26T12:17:45.933Z,9.66
2019-03-26T12:20:16.392Z,9.71
2019-03-26T12:22:46.895Z,9.79
2019-03-26T12:25:17.781Z,9.82
2019-03-26T12:27:48.528Z,10.00
2019-03-26T12:30:33.870Z,10.43
2019-03-26T12:33:05.068Z,10.85
2019-03-26T12:35:36.020Z,11.13
2019-03-26T12:38:20.334Z,11.25
2019-03-26T12:40:51.495Z,11.25
2019-03-26T12:43:22.188Z,11.14
2019-03-26T12:45:52.785Z,11.01
2019-03-26T12:48:24.363Z,10.93
2019-03-26T12:50:54.693Z,10.82
2019-03-26T12:53:25.173Z,10.66
2019-03-26T12:55:55.634Z,10.50
2019-03-26T12:58:32.073Z,10.36
2019-03-26T13:00:59.395Z,10.30
2019-03-26T13:03:29.814Z,10.29
2019-03-26T13:06:00.876Z,10.15
2019-03-26T13:08:31.304Z,10.08
2019-03-26T13:11:01.750Z,10.01
2019-03-26T13:13:33.398Z,9.92
2019-03-26T13:16:03.881Z,9.84
2019-03-26T13:18:34.366Z,9.79
2019-03-26T13:21:05.852Z,9.73
2019-03-26T13:23:36.347Z,9.70
2019-03-26T13:26:07.869Z,9.67
2019-03-26T13:28:38.367Z,9.68
2019-03-26T13:31:08.997Z,9.73
2019-03-26T13:33:39.746Z,9.75
2019-03-26T13:36:10.199Z,9.81
2019-03-26T13:38:41.023Z,9.87
2019-03-26T13:41:12.817Z,9.91
2019-03-26T13:43:43.355Z,9.91
2019-03-26T13:46:13.717Z,10.01
2019-03-26T13:48:44.187Z,10.09
2019-03-26T13:51:14.594Z,10.11
2019-03-26T13:53:45.194Z,10.11
2019-03-26T13:56:16.051Z,10.16
2019-03-26T13:58:46.771Z,10.10
2019-03-26T14:01:17.628Z,10.06
2019-03-26T14:03:48.408Z,9.96
2019-03-26T14:06:19.170Z,9.91
2019-03-26T14:08:49.662Z,9.87
2019-03-26T14:11:20.448Z,9.88
2019-03-26T14:13:50.863Z,9.90
2019-03-26T14:16:21.265Z,9.92
2019-03-26T14:18:51.753Z,9.93
2019-03-26T14:21:22.553Z,10.05
2019-03-26T14:23:53.049Z,10.15
2019-03-26T14:26:23.960Z,10.13
2019-03-26T14:28:54.380Z,10.25
2019-03-26T14:31:24.954Z,10.32
2019-03-26T14:33:55.478Z,10.35
2019-03-26T14:36:26.284Z,10.26
2019-03-26T14:38:56.836Z,10.20
2019-03-26T14:41:27.352Z,10.10
2019-03-26T14:43:57.930Z,10.02
2019-03-26T14:46:28.559Z,9.88
2019-03-26T14:48:59.453Z,9.80
2019-03-26T14:51:29.958Z,9.72
2019-03-26T14:54:00.383Z,9.67
2019-03-26T14:56:30.933Z,9.62
2019-03-26T14:59:01.404Z,9.67
2019-03-26T15:01:31.979Z,9.66
2019-03-26T15:04:02.573Z,9.75
2019-03-26T15:06:33.943Z,9.84
2019-03-26T15:09:05.805Z,9.86
2019-03-26T15:11:36.367Z,9.90
2019-03-26T15:14:06.897Z,9.86
2019-03-26T15:16:37.514Z,9.83
2019-03-26T15:19:08.140Z,9.80
2019-03-26T15:21:38.663Z,9.78
2019-03-26T15:24:10.085Z,9.79
2019-03-26T15:26:40.585Z,9.78
2019-03-26T15:29:11.422Z,9.84
2019-03-26T15:31:42.219Z,9.85
2019-03-26T15:34:12.710Z,9.83
2019-03-26T15:36:43.199Z,9.79
2019-03-26T15:39:13.718Z,9.81
2019-03-26T15:41:46.489Z,9.80
2019-03-26T15:44:17.224Z,9.80
2019-03-26T15:46:47.630Z,9.79
2019-03-26T15:49:18.074Z,9.78
2019-03-26T15:51:48.576Z,9.79
2019-03-26T15:54:19.471Z,9.83
2019-03-26T15:56:49.971Z,9.79
2019-03-26T15:59:20.372Z,9.79
2019-03-26T16:01:50.804Z,9.81
2019-03-26T16:04:22.124Z,9.81
2019-03-26T16:06:52.581Z,9.78
2019-03-26T16:09:23.073Z,9.80
2019-03-26T16:11:53.865Z,9.83
2019-03-26T16:14:24.278Z,9.86
2019-03-26T16:16:54.683Z,9.87
2019-03-26T16:19:32.221Z,9.86
2019-03-26T16:21:57.414Z,9.89
2019-03-26T16:24:28.047Z,9.88
2019-03-26T16:26:58.825Z,9.87
2019-03-26T16:29:29.845Z,9.83
2019-03-26T16:32:00.159Z,9.82
2019-03-26T16:34:31.250Z,9.79
2019-03-26T16:37:01.636Z,9.79
2019-03-26T16:39:32.082Z,9.79
2019-03-26T16:42:02.698Z,9.79
2019-03-26T16:44:33.113Z,9.77
2019-03-26T16:47:04.263Z,9.71
2019-03-26T16:49:34.688Z,9.67
2019-03-26T16:52:05.515Z,9.64
2019-03-26T16:54:36.611Z,9.65
2019-03-26T16:57:07.403Z,9.69
2019-03-26T16:59:37.903Z,9.68
2019-03-26T17:02:08.412Z,9.65
2019-03-26T17:04:39.189Z,9.65
2019-03-26T17:07:09.934Z,9.64
2019-03-26T17:09:40.763Z,9.64
2019-03-26T17:12:11.372Z,9.64
2019-03-26T17:14:41.861Z,9.62
2019-03-26T17:17:12.326Z,9.61
2019-03-26T17:19:42.808Z,9.61
2019-03-26T17:22:13.177Z,9.63
2019-03-26T17:24:43.681Z,9.64
2019-03-26T17:27:14.184Z,9.64
2019-03-26T17:29:44.996Z,9.65
2019-03-26T17:32:15.703Z,9.65
2019-03-26T17:34:46.209Z,9.66
2019-03-26T17:37:16.606Z,9.65
2019-03-26T17:39:47.083Z,9.64
2019-03-26T17:42:17.938Z,9.63
2019-03-26T17:44:48.713Z,9.61
2019-03-26T17:47:19.781Z,9.63
2019-03-26T17:49:51.915Z,9.65
2019-03-26T17:52:24.398Z,9.66
2019-03-26T17:54:54.946Z,9.66
2019-03-26T17:57:25.491Z,9.67
2019-03-26T17:59:56.041Z,9.68
2019-03-26T18:02:26.790Z,9.69
2019-03-26T18:04:57.742Z,9.66
2019-03-26T18:07:28.217Z,9.66
2019-03-26T18:09:58.736Z,9.68
2019-03-26T18:12:31.020Z,9.69
2019-03-26T18:15:01.703Z,9.70
2019-03-26T18:17:33.208Z,9.71
2019-03-26T18:20:04.021Z,9.71
2019-03-26T18:22:35.561Z,9.71
2019-03-26T18:25:06.529Z,9.67
2019-03-26T18:27:37.319Z,9.66
2019-03-26T18:30:08.191Z,9.66
2019-03-26T18:32:38.888Z,9.67
2019-03-26T18:35:09.295Z,9.68
2019-03-26T18:37:40.044Z,9.67
2019-03-26T18:40:10.679Z,9.69
2019-03-26T18:42:44.236Z,9.69
2019-03-26T18:45:13.619Z,9.70
2019-03-26T18:47:44.109Z,9.72
2019-03-26T18:50:15.021Z,9.70
2019-03-26T18:52:45.472Z,9.71
2019-03-26T18:55:16.159Z,9.71
2019-03-26T18:57:46.628Z,9.71
2019-03-26T19:00:22.077Z,9.71
2019-03-26T19:02:52.620Z,9.72
2019-03-26T19:05:23.024Z,9.73
2019-03-26T19:07:53.602Z,9.71
2019-03-26T19:10:28.573Z,9.71
2019-03-26T19:12:59.092Z,9.71
2019-03-26T19:15:29.744Z,9.73
2019-03-26T19:18:00.229Z,9.73
2019-03-26T19:20:30.872Z,9.71
2019-03-26T19:23:01.752Z,9.72
2019-03-26T19:25:32.332Z,9.71
2019-03-26T19:28:02.829Z,9.72
2019-03-26T19:30:33.217Z,9.71
2019-03-26T19:33:03.720Z,9.68
2019-03-26T19:35:35.290Z,9.68
2019-03-26T19:38:05.764Z,9.67
2019-03-26T19:40:36.368Z,9.67
2019-03-26T19:43:11.213Z,9.66
2019-03-26T19:45:39.100Z,9.65
2019-03-26T19:48:09.570Z,9.62
2019-03-26T19:50:40.111Z,9.61
2019-03-26T19:53:10.509Z,9.61
2019-03-26T19:55:41.062Z,9.61
2019-03-26T19:58:11.458Z,9.59
2019-03-26T20:00:41.961Z,9.60
2019-03-26T20:03:12.741Z,9.60
2019-03-26T20:05:43.502Z,9.57
2019-03-26T20:08:14.003Z,9.54
2019-03-26T20:10:44.557Z,9.53
2019-03-26T20:13:24.133Z,9.54
2019-03-26T20:15:47.382Z,9.51
2019-03-26T20:18:17.939Z,9.51
2019-03-26T20:20:48.671Z,9.51
2019-03-26T20:23:19.179Z,9.51
2019-03-26T20:25:49.989Z,9.49
2019-03-26T20:28:20.514Z,9.48
2019-03-26T20:30:52.047Z,9.48
2019-03-26T20:33:24.057Z,9.48
2019-03-26T20:35:54.844Z,9.48
2019-03-26T20:38:25.815Z,9.49
2019-03-26T20:40:56.460Z,9.49
2019-03-26T20:43:36.761Z,9.50
2019-03-26T20:45:59.182Z,9.51
2019-03-26T20:48:29.942Z,9.50
2019-03-26T20:51:01.437Z,9.50
2019-03-26T20:53:32.097Z,9.51
2019-03-26T20:56:02.884Z,9.52
2019-03-26T20:58:33.739Z,9.53
2019-03-26T21:01:05.482Z,9.54
2019-03-26T21:03:36.107Z,9.55
2019-03-26T21:06:06.572Z,9.54
2019-03-26T21:08:37.546Z,9.53
2019-03-26T21:11:08.389Z,9.54
2019-03-26T21:13:50.296Z,9.51
2019-03-26T21:16:11.064Z,9.46
2019-03-26T21:18:41.524Z,9.44
2019-03-26T21:21:12.025Z,9.45
2019-03-26T21:23:42.816Z,9.47
2019-03-26T21:26:13.351Z,9.45
2019-03-26T21:28:43.927Z,9.45
2019-03-26T21:31:14.741Z,9.44
2019-03-26T21:33:45.315Z,9.41
2019-03-26T21:36:15.914Z,9.42
2019-03-26T21:38:46.575Z,9.38
2019-03-26T21:41:17.427Z,9.38
2019-03-26T21:43:47.924Z,9.38
2019-03-26T21:46:18.819Z,9.41
2019-03-26T21:48:53.451Z,9.42
2019-03-26T21:51:23.957Z,9.42
2019-03-26T21:53:54.332Z,9.40
2019-03-26T21:56:25.208Z,9.37
2019-03-26T21:58:55.676Z,9.36
2019-03-26T22:01:26.207Z,9.36
2019-03-26T22:03:56.661Z,9.32
2019-03-26T22:06:27.154Z,9.33
2019-03-26T22:08:57.551Z,9.34
2019-03-26T22:11:27.952Z,9.33
2019-03-26T22:13:58.571Z,9.32
2019-03-26T22:16:29.430Z,9.32
2019-03-26T22:19:00.607Z,9.31
2019-03-26T22:21:31.132Z,9.30
2019-03-26T22:24:01.562Z,9.28
2019-03-26T22:26:32.008Z,9.27
2019-03-26T22:29:02.492Z,9.27
2019-03-26T22:31:33.159Z,9.28
2019-03-26T22:34:04.137Z,9.29
2019-03-26T22:36:34.709Z,9.30
2019-03-26T22:39:06.736Z,9.29
2019-03-26T22:41:37.933Z,9.31
2019-03-26T22:44:08.454Z,9.32
2019-03-26T22:46:38.767Z,9.32
2019-03-26T22:49:09.162Z,9.30
2019-03-26T22:51:39.623Z,9.29
2019-03-26T22:54:10.657Z,9.29
2019-03-26T22:56:41.243Z,9.29
2019-03-26T22:59:11.740Z,9.30
2019-03-26T23:01:42.663Z,9.28
2019-03-26T23:04:13.674Z,9.24
2019-03-26T23:06:44.171Z,9.24
2019-03-26T23:09:14.653Z,9.23
2019-03-26T23:11:45.303Z,9.22
2019-03-26T23:14:15.883Z,9.21
2019-03-26T23:16:46.434Z,9.21
2019-03-26T23:19:16.992Z,9.24
2019-03-26T23:21:47.416Z,9.24
2019-03-26T23:24:17.915Z,9.24
2019-03-26T23:26:48.394Z,9.23
2019-03-26T23:29:19.457Z,9.22
2019-03-26T23:31:50.410Z,9.19
2019-03-26T23:34:21.148Z,9.18
2019-03-26T23:36:51.814Z,9.16
2019-03-26T23:39:22.329Z,9.14
2019-03-26T23:41:53.144Z,9.11
2019-03-26T23:44:26.188Z,9.12
2019-03-26T23:46:56.242Z,9.13
2019-03-26T23:49:26.657Z,9.10
2019-03-26T23:51:57.311Z,9.06
2019-03-26T23:54:28.260Z,8.99
2019-03-26T23:56:58.684Z,8.92
2019-03-26T23:59:29.294Z,8.89
